createdAt,value
2022-12-06T00:01:47.862Z,97199.28
2022-12-06T00:04:18.118Z,97194.06
2022-12-06T00:06:48.010Z,97187.06
2022-12-06T00:09:19.336Z,97189.31
2022-12-06T00:11:47.914Z,97181.13
2022-12-06T00:14:16.260Z,97176.00
2022-12-06T00:16:44.348Z,97185.03
2022-12-06T00:19:13.948Z,97182.19
2022-12-06T00:21:43.793Z,97190.00
2022-12-06T00:24:13.875Z,97184.78
2022-12-06T00:26:43.731Z,97186.09
2022-12-06T00:29:13.259Z,97181.03
2022-12-06T00:31:41.262Z,97183.78
2022-12-06T00:34:09.506Z,97180.97
2022-12-06T00:36:38.852Z,97174.91
2022-12-06T00:39:11.595Z,97170.75
2022-12-06T00:41:40.003Z,97175.13
2022-12-06T00:44:08.143Z,97169.53
2022-12-06T00:46:36.643Z,97176.75
2022-12-06T00:49:06.001Z,97166.44
2022-12-06T00:51:34.630Z,97174.50
2022-12-06T00:54:02.447Z,97171.31
2022-12-06T00:56:32.078Z,97175.16
2022-12-06T00:58:59.860Z,97177.03
2022-12-06T01:01:29.277Z,97174.06
2022-12-06T01:03:58.978Z,97169.09
2022-12-06T01:06:28.917Z,97160.56
2022-12-06T01:08:56.998Z,97167.03
2022-12-06T01:11:25.557Z,97165.03
2022-12-06T01:13:54.829Z,97164.88
2022-12-06T01:16:23.936Z,97161.22
2022-12-06T01:18:53.822Z,97157.25
2022-12-06T01:21:22.471Z,97161.97
2022-12-06T01:23:50.724Z,97156.19
2022-12-06T01:26:20.187Z,97160.22
2022-12-06T01:28:47.885Z,97147.66
2022-12-06T01:31:17.354Z,97143.25
2022-12-06T01:33:45.178Z,97135.91
2022-12-06T01:36:17.373Z,97134.13
2022-12-06T01:38:45.016Z,97140.78
2022-12-06T01:41:13.134Z,97134.66
2022-12-06T01:43:42.661Z,97132.66
2022-12-06T01:46:23.703Z,97131.00
2022-12-06T01:48:57.037Z,97125.78
2022-12-06T01:51:24.962Z,97123.19
2022-12-06T01:53:53.752Z,97120.72
2022-12-06T01:56:22.121Z,97134.44
2022-12-06T01:58:52.226Z,97129.34
2022-12-06T02:01:19.966Z,97128.63
2022-12-06T02:03:49.516Z,97120.50
2022-12-06T02:06:17.806Z,97119.78
2022-12-06T02:08:46.106Z,97129.97
2022-12-06T02:11:13.732Z,97124.19
2022-12-06T02:13:42.009Z,97128.53
2022-12-06T02:16:27.234Z,97123.59
2022-12-06T02:18:59.705Z,97121.69
2022-12-06T02:21:33.701Z,97129.97
2022-12-06T02:24:40.959Z,97129.59
2022-12-06T02:27:27.305Z,97118.09
2022-12-06T02:30:18.634Z,97118.69
2022-12-06T02:32:54.910Z,97116.66
2022-12-06T02:35:29.398Z,97122.09
2022-12-06T02:37:59.936Z,97128.50
2022-12-06T02:40:32.941Z,97123.03
2022-12-06T02:43:03.430Z,97125.97
2022-12-06T02:45:33.544Z,97125.47
2022-12-06T02:48:04.078Z,97118.47
2022-12-06T02:50:33.873Z,97129.38
2022-12-06T02:53:03.390Z,97124.84
2022-12-06T02:55:31.808Z,97124.59
2022-12-06T02:57:59.437Z,97117.53
2022-12-06T03:00:39.514Z,97112.19
2022-12-06T03:03:29.997Z,97109.66
2022-12-06T03:06:40.892Z,97103.44
2022-12-06T03:09:18.280Z,97095.47
2022-12-06T03:11:51.516Z,97100.81
2022-12-06T03:14:22.534Z,97094.91
2022-12-06T03:16:51.634Z,97101.28
2022-12-06T03:19:22.661Z,97097.53
2022-12-06T03:21:54.826Z,97102.03
2022-12-06T03:24:24.149Z,97104.53
2022-12-06T03:26:54.869Z,97095.56
2022-12-06T03:29:23.361Z,97110.16
2022-12-06T03:31:52.197Z,97101.22
2022-12-06T03:34:23.704Z,97102.44
2022-12-06T03:36:52.656Z,97107.84
2022-12-06T03:39:24.285Z,97100.38
2022-12-06T03:41:54.978Z,97113.31
2022-12-06T03:44:23.416Z,97104.41
2022-12-06T03:46:54.088Z,97104.75
2022-12-06T03:49:27.295Z,97111.25
2022-12-06T03:51:55.402Z,97108.50
2022-12-06T03:54:23.031Z,97111.56
2022-12-06T03:56:51.232Z,97107.63
2022-12-06T03:59:18.807Z,97107.28
2022-12-06T04:01:46.418Z,97108.09
2022-12-06T04:04:14.153Z,97108.59
2022-12-06T04:06:43.133Z,97100.16
2022-12-06T04:09:28.626Z,97091.75
2022-12-06T04:11:56.283Z,97107.63
2022-12-06T04:14:23.903Z,97109.91
2022-12-06T04:17:09.369Z,97100.28
2022-12-06T04:19:36.952Z,97106.69
2022-12-06T04:22:23.661Z,97089.44
2022-12-06T04:24:51.935Z,97090.34
2022-12-06T04:27:37.708Z,97098.22
2022-12-06T04:30:25.624Z,97089.91
2022-12-06T04:33:11.167Z,97095.50
2022-12-06T04:35:56.548Z,97087.88
2022-12-06T04:38:41.052Z,97095.97
2022-12-06T04:41:08.774Z,97087.69
2022-12-06T04:43:44.491Z,97086.97
2022-12-06T04:46:15.547Z,97088.44
2022-12-06T04:48:48.551Z,97083.28
2022-12-06T04:51:16.531Z,97085.19
2022-12-06T04:53:46.177Z,97074.81
2022-12-06T04:56:13.838Z,97077.91
2022-12-06T04:58:41.550Z,97080.41
2022-12-06T05:01:09.233Z,97077.81
2022-12-06T05:03:43.818Z,97073.19
2022-12-06T05:06:12.017Z,97072.72
2022-12-06T05:08:39.794Z,97069.63
2022-12-06T05:11:08.691Z,97071.84
2022-12-06T05:13:36.741Z,97072.44
2022-12-06T05:16:06.751Z,97068.28
2022-12-06T05:18:34.939Z,97069.50
2022-12-06T05:21:03.859Z,97067.84
2022-12-06T05:23:31.931Z,97071.41
2022-12-06T05:26:00.728Z,97065.81
2022-12-06T05:28:30.428Z,97068.94
2022-12-06T05:30:58.227Z,97059.91
2022-12-06T05:33:26.531Z,97063.63
2022-12-06T05:35:54.391Z,97066.78
2022-12-06T05:38:22.257Z,97063.81
2022-12-06T05:40:50.195Z,97065.97
2022-12-06T05:43:18.240Z,97069.41
2022-12-06T05:45:47.303Z,97074.84
2022-12-06T05:48:14.910Z,97063.97
2022-12-06T05:50:42.487Z,97072.00
2022-12-06T05:53:13.360Z,97065.22
2022-12-06T05:55:41.013Z,97064.78
2022-12-06T05:58:08.808Z,97064.91
2022-12-06T06:00:36.748Z,97065.72
2022-12-06T06:03:06.209Z,97058.50
2022-12-06T06:05:34.166Z,97067.53
2022-12-06T06:08:01.790Z,97067.75
2022-12-06T06:10:29.432Z,97058.75
2022-12-06T06:12:57.008Z,97067.63
2022-12-06T06:15:24.619Z,97061.72
2022-12-06T06:17:52.248Z,97054.72
2022-12-06T06:20:21.467Z,97056.25
2022-12-06T06:22:49.093Z,97059.91
2022-12-06T06:25:16.702Z,97057.91
2022-12-06T06:27:44.331Z,97070.44
2022-12-06T06:30:13.408Z,97073.06
2022-12-06T06:32:41.282Z,97066.69
2022-12-06T06:35:09.696Z,97049.63
2022-12-06T06:37:38.645Z,97058.75
2022-12-06T06:40:07.460Z,97067.03
2022-12-06T06:42:35.097Z,97069.53
2022-12-06T06:45:04.153Z,97065.28
2022-12-06T06:47:31.859Z,97060.88
2022-12-06T06:50:01.072Z,97060.88
2022-12-06T06:52:28.900Z,97063.38
2022-12-06T06:54:57.878Z,97061.56
2022-12-06T06:57:25.572Z,97070.59
2022-12-06T06:59:53.186Z,97064.38
2022-12-06T07:02:20.768Z,97063.53
2022-12-06T07:04:49.829Z,97060.22
2022-12-06T07:07:20.983Z,97058.72
2022-12-06T07:09:49.236Z,97064.72
2022-12-06T07:12:18.389Z,97063.72
2022-12-06T07:14:45.986Z,97063.81
2022-12-06T07:17:13.702Z,97064.28
2022-12-06T07:19:41.467Z,97064.97
2022-12-06T07:22:10.396Z,97056.66
2022-12-06T07:24:42.171Z,97058.25
2022-12-06T07:27:11.968Z,97070.66
2022-12-06T07:29:40.925Z,97061.34
2022-12-06T07:32:09.051Z,97060.72
2022-12-06T07:34:36.752Z,97062.81
2022-12-06T07:37:06.149Z,97070.13
2022-12-06T07:39:33.834Z,97058.66
2022-12-06T07:42:19.193Z,97056.56
2022-12-06T07:45:04.520Z,97062.56
2022-12-06T07:47:35.519Z,97058.41
2022-12-06T07:50:03.634Z,97063.59
2022-12-06T07:52:32.930Z,97052.31
2022-12-06T07:55:00.670Z,97057.63
2022-12-06T07:57:28.542Z,97048.69
2022-12-06T07:59:58.062Z,97052.78
2022-12-06T08:02:27.109Z,97049.66
2022-12-06T08:04:55.438Z,97054.59
2022-12-06T08:07:23.418Z,97053.38
2022-12-06T08:09:52.894Z,97057.69
2022-12-06T08:12:20.660Z,97052.47
2022-12-06T08:14:48.417Z,97054.25
2022-12-06T08:17:17.532Z,97053.66
2022-12-06T08:19:46.931Z,97049.09
2022-12-06T08:22:14.556Z,97048.66
2022-12-06T08:24:42.197Z,97053.81
2022-12-06T08:27:09.789Z,97051.81
2022-12-06T08:29:38.113Z,97060.78
2022-12-06T08:32:06.275Z,97047.88
2022-12-06T08:34:35.991Z,97057.00
2022-12-06T08:37:03.906Z,97054.94
2022-12-06T08:39:31.821Z,97052.59
2022-12-06T08:41:59.350Z,97050.25
2022-12-06T08:44:28.375Z,97057.22
2022-12-06T08:46:56.596Z,97060.69
2022-12-06T08:49:25.320Z,97055.91
2022-12-06T08:51:57.214Z,97054.44
2022-12-06T08:54:25.870Z,97053.72
2022-12-06T08:56:54.063Z,97058.06
2022-12-06T08:59:21.969Z,97055.09
2022-12-06T09:01:49.582Z,97048.75
2022-12-06T09:04:18.233Z,97048.91
2022-12-06T09:06:46.517Z,97046.72
2022-12-06T09:09:16.957Z,97055.63
2022-12-06T09:11:46.351Z,97056.53
2022-12-06T09:14:21.027Z,97058.59
2022-12-06T09:16:49.828Z,97049.97
2022-12-06T09:19:17.646Z,97052.44
2022-12-06T09:21:46.542Z,97052.22
2022-12-06T09:24:17.293Z,97050.69
2022-12-06T09:26:45.183Z,97043.38
2022-12-06T09:29:13.300Z,97045.75
2022-12-06T09:31:44.382Z,97047.41
2022-12-06T09:34:13.609Z,97048.38
2022-12-06T09:36:45.883Z,97046.78
2022-12-06T09:39:17.477Z,97047.72
2022-12-06T09:42:08.205Z,97046.84
2022-12-06T09:44:55.937Z,97048.50
2022-12-06T09:47:33.957Z,97042.19
2022-12-06T09:50:09.541Z,97051.16
2022-12-06T09:52:57.050Z,97046.56
2022-12-06T09:55:39.318Z,97044.09
2022-12-06T09:58:13.010Z,97047.00
2022-12-06T10:00:45.115Z,97038.19
2022-12-06T10:03:36.758Z,97036.97
2022-12-06T10:06:09.424Z,97037.94
2022-12-06T10:08:52.045Z,97029.94
2022-12-06T10:11:32.046Z,97037.50
2022-12-06T10:14:05.993Z,97033.56
2022-12-06T10:16:44.831Z,97025.41
2022-12-06T10:19:21.389Z,97020.34
2022-12-06T10:21:57.235Z,97024.03
2022-12-06T10:24:37.323Z,97022.09
2022-12-06T10:27:10.282Z,97019.91
2022-12-06T10:29:44.960Z,97015.09
2022-12-06T10:32:18.076Z,97011.53
2022-12-06T10:34:53.013Z,97012.38
2022-12-06T10:37:30.641Z,97008.91
2022-12-06T10:40:02.831Z,97001.66
2022-12-06T10:42:36.864Z,97000.16
2022-12-06T10:45:29.172Z,97000.56
2022-12-06T10:47:58.179Z,97006.06
2022-12-06T10:50:30.478Z,97005.56
2022-12-06T10:53:03.034Z,96992.72
2022-12-06T10:55:33.152Z,96996.75
2022-12-06T10:58:09.004Z,96988.66
2022-12-06T11:00:40.659Z,96998.94
2022-12-06T11:03:14.303Z,96995.53
2022-12-06T11:05:44.447Z,96997.44
2022-12-06T11:08:15.209Z,96998.97
2022-12-06T11:10:45.574Z,97000.63
2022-12-06T11:13:19.299Z,97000.06
2022-12-06T11:15:50.881Z,96992.66
2022-12-06T11:18:19.644Z,96986.31
2022-12-06T11:20:50.521Z,96982.31
2022-12-06T11:23:22.963Z,96985.06
2022-12-06T11:26:08.297Z,96975.56
2022-12-06T11:28:40.378Z,96974.34
2022-12-06T11:31:15.454Z,96967.88
2022-12-06T11:33:43.203Z,96974.31
2022-12-06T11:36:11.630Z,96960.69
2022-12-06T11:38:41.261Z,96962.78
2022-12-06T11:41:12.215Z,96966.09
2022-12-06T11:43:41.399Z,96962.09
2022-12-06T11:46:12.336Z,96961.53
2022-12-06T11:48:40.051Z,96954.25
2022-12-06T11:51:14.139Z,96959.50
2022-12-06T11:53:45.650Z,96954.09
2022-12-06T11:56:26.416Z,96948.06
2022-12-06T11:59:03.838Z,96947.09
2022-12-06T12:01:40.254Z,96947.78
2022-12-06T12:04:34.671Z,96940.63
2022-12-06T12:07:05.306Z,96934.03
2022-12-06T12:09:35.085Z,96939.25
2022-12-06T12:12:06.455Z,96931.41
2022-12-06T12:14:42.400Z,96925.19
2022-12-06T12:17:19.242Z,96926.72
2022-12-06T12:19:50.723Z,96921.63
2022-12-06T12:22:28.949Z,96921.22
2022-12-06T12:27:48.362Z,96924.13
2022-12-06T12:30:27.851Z,96917.78
2022-12-06T12:33:19.996Z,96916.53
2022-12-06T12:35:52.014Z,96911.56
2022-12-06T12:38:26.694Z,96910.22
2022-12-06T12:40:56.602Z,96901.00
2022-12-06T12:43:26.470Z,96895.03
2022-12-06T12:46:17.800Z,96904.00
2022-12-06T12:48:47.616Z,96897.41
2022-12-06T12:51:29.779Z,96901.28
2022-12-06T12:53:59.460Z,96892.88
2022-12-06T12:56:27.082Z,96890.94
2022-12-06T12:58:59.086Z,96884.34
2022-12-06T13:01:37.757Z,96886.97
2022-12-06T13:04:12.682Z,96890.81
2022-12-06T13:06:46.669Z,96890.53
2022-12-06T13:09:22.805Z,96891.50
2022-12-06T13:11:55.320Z,96894.53
2022-12-06T13:14:23.916Z,96901.69
2022-12-06T13:16:54.804Z,96901.16
2022-12-06T13:19:26.416Z,96905.25
2022-12-06T13:21:54.410Z,96904.69
2022-12-06T13:24:25.996Z,96897.28
2022-12-06T13:26:57.678Z,96904.03
2022-12-06T13:29:31.397Z,96907.06
2022-12-06T13:32:02.294Z,96904.84
2022-12-06T13:34:37.607Z,96905.13
2022-12-06T13:37:05.924Z,96904.03
2022-12-06T13:39:39.160Z,96897.00
2022-12-06T13:42:21.280Z,96892.03
2022-12-06T13:44:59.599Z,96891.78
2022-12-06T13:47:42.760Z,96890.56
2022-12-06T13:50:46.253Z,96892.34
2022-12-06T13:53:13.986Z,96891.09
2022-12-06T13:56:00.872Z,96889.84
2022-12-06T13:58:43.065Z,96886.41
2022-12-06T14:01:50.567Z,96895.75
2022-12-06T14:04:41.384Z,96888.31
2022-12-06T14:09:41.649Z,96891.91
2022-12-06T14:12:15.001Z,96880.63
2022-12-06T14:14:42.687Z,96888.34
2022-12-06T14:17:32.239Z,96891.78
2022-12-06T14:20:04.842Z,96885.59
2022-12-06T14:22:36.303Z,96885.72
2022-12-06T14:25:07.045Z,96892.47
2022-12-06T14:27:44.216Z,96890.94
2022-12-06T14:30:25.159Z,96885.03
2022-12-06T14:32:55.265Z,96893.16
2022-12-06T14:35:26.256Z,96895.91
2022-12-06T14:37:58.600Z,96888.63
2022-12-06T14:43:17.933Z,96886.69
2022-12-06T14:45:46.715Z,96890.28
2022-12-06T14:48:14.628Z,96895.75
2022-12-06T14:50:44.768Z,96891.66
2022-12-06T14:53:14.717Z,96890.97
2022-12-06T14:55:54.509Z,96894.09
2022-12-06T14:58:23.747Z,96886.44
2022-12-06T15:00:54.640Z,96890.97
2022-12-06T15:03:29.007Z,96891.25
2022-12-06T15:06:17.092Z,96893.31
2022-12-06T15:08:49.245Z,96893.59
2022-12-06T15:11:44.589Z,96891.09
2022-12-06T15:14:17.135Z,96893.16
2022-12-06T15:16:46.134Z,96890.25
2022-12-06T15:19:15.507Z,96887.22
2022-12-06T15:21:44.430Z,96891.66
2022-12-06T15:24:17.753Z,96893.03
2022-12-06T15:26:45.448Z,96884.34
2022-12-06T15:29:13.112Z,96887.94
2022-12-06T15:31:42.785Z,96888.34
2022-12-06T15:34:21.849Z,96892.88
2022-12-06T15:37:09.049Z,96885.44
2022-12-06T15:39:40.156Z,96887.50
2022-12-06T15:42:14.011Z,96883.94
2022-12-06T15:44:47.231Z,96895.63
2022-12-06T15:47:16.674Z,96902.09
2022-12-06T15:49:45.398Z,96896.84
2022-12-06T15:52:16.992Z,96895.34
2022-12-06T15:54:44.901Z,96901.13
2022-12-06T15:57:12.973Z,96908.13
2022-12-06T15:59:40.595Z,96907.31
2022-12-06T16:02:14.021Z,96906.75
2022-12-06T16:04:41.914Z,96905.38
2022-12-06T16:07:10.769Z,96898.91
2022-12-06T16:09:39.841Z,96906.91
2022-12-06T16:12:08.109Z,96898.50
2022-12-06T16:14:35.836Z,96893.13
2022-12-06T16:17:03.418Z,96892.69
2022-12-06T16:19:51.056Z,96894.34
2022-12-06T16:22:18.695Z,96896.53
2022-12-06T16:24:52.312Z,96901.88
2022-12-06T16:27:22.187Z,96895.97
2022-12-06T16:29:49.844Z,96899.53
2022-12-06T16:32:17.407Z,96895.56
2022-12-06T16:34:44.987Z,96902.69
2022-12-06T16:37:12.753Z,96895.56
2022-12-06T16:39:40.576Z,96897.75
2022-12-06T16:42:10.739Z,96891.56
2022-12-06T16:44:50.995Z,96897.63
2022-12-06T16:49:48.285Z,96904.88
2022-12-06T16:52:17.113Z,96909.09
2022-12-06T16:54:45.107Z,96909.78
2022-12-06T16:57:15.744Z,96910.88
2022-12-06T16:59:43.623Z,96909.22
2022-12-06T17:02:24.000Z,96908.41
2022-12-06T17:04:51.625Z,96913.63
2022-12-06T17:07:19.310Z,96912.78
2022-12-06T17:09:46.967Z,96917.47
2022-12-06T17:12:15.921Z,96917.59
2022-12-06T17:14:43.598Z,96923.84
2022-12-06T17:17:13.829Z,96916.03
2022-12-06T17:19:43.136Z,96928.13
2022-12-06T17:22:12.130Z,96918.91
2022-12-06T17:24:40.100Z,96926.72
2022-12-06T17:27:09.037Z,96921.63
2022-12-06T17:29:38.403Z,96922.59
2022-12-06T17:32:06.825Z,96916.41
2022-12-06T17:34:34.456Z,96920.56
2022-12-06T17:37:02.445Z,96924.13
2022-12-06T17:39:30.000Z,96925.06
2022-12-06T17:42:15.345Z,96919.84
2022-12-06T17:44:44.960Z,96928.75
2022-12-06T17:47:12.617Z,96933.16
2022-12-06T17:49:40.326Z,96929.59
2022-12-06T17:52:08.011Z,96930.41
2022-12-06T17:54:36.342Z,96934.56
2022-12-06T17:57:04.082Z,96928.75
2022-12-06T17:59:34.043Z,96921.63
2022-12-06T18:02:19.039Z,96928.75
2022-12-06T18:04:48.179Z,96925.88
2022-12-06T18:07:16.753Z,96935.63
2022-12-06T18:09:44.649Z,96928.75
2022-12-06T18:12:13.776Z,96924.66
2022-12-06T18:14:41.313Z,96929.03
2022-12-06T18:17:11.008Z,96928.69
2022-12-06T18:19:40.278Z,96931.75
2022-12-06T18:22:07.942Z,96926.78
2022-12-06T18:24:36.298Z,96931.50
2022-12-06T18:27:04.771Z,96936.72
2022-12-06T18:29:32.403Z,96938.22
2022-12-06T18:32:00.141Z,96938.75
2022-12-06T18:34:29.219Z,96933.16
2022-12-06T18:36:56.853Z,96937.28
2022-12-06T18:39:25.300Z,96930.09
2022-12-06T18:41:53.960Z,96932.16
2022-12-06T18:44:21.805Z,96931.75
2022-12-06T18:46:49.408Z,96928.31
2022-12-06T18:49:17.076Z,96931.03
2022-12-06T18:51:46.111Z,96930.50
2022-12-06T18:54:14.639Z,96926.34
2022-12-06T18:56:42.456Z,96923.63
2022-12-06T18:59:11.693Z,96926.50
2022-12-06T19:01:40.184Z,96930.66
2022-12-06T19:04:09.621Z,96933.44
2022-12-06T19:06:38.647Z,96927.75
2022-12-06T19:09:09.513Z,96925.28
2022-12-06T19:11:37.916Z,96929.22
2022-12-06T19:14:06.445Z,96930.88
2022-12-06T19:16:37.086Z,96926.06
2022-12-06T19:19:14.216Z,96927.81
2022-12-06T19:21:43.972Z,96920.84
2022-12-06T19:24:15.526Z,96917.53
2022-12-06T19:26:43.247Z,96931.50
2022-12-06T19:29:10.872Z,96934.97
2022-12-06T19:31:38.530Z,96935.31
2022-12-06T19:34:06.269Z,96936.16
2022-12-06T19:36:33.995Z,96932.59
2022-12-06T19:39:02.990Z,96925.91
2022-12-06T19:41:31.967Z,96938.25
2022-12-06T19:44:17.365Z,96931.81
2022-12-06T19:46:46.473Z,96935.97
2022-12-06T19:49:15.253Z,96931.81
2022-12-06T19:51:44.457Z,96923.19
2022-12-06T19:54:14.994Z,96929.47
2022-12-06T19:56:44.008Z,96932.78
2022-12-06T19:59:12.600Z,96932.78
2022-12-06T20:01:41.194Z,96931.13
2022-12-06T20:04:09.223Z,96934.25
2022-12-06T20:06:37.041Z,96934.63
2022-12-06T20:09:04.959Z,96933.56
2022-12-06T20:11:50.309Z,96936.03
2022-12-06T20:14:19.850Z,96940.75
2022-12-06T20:16:48.142Z,96938.63
2022-12-06T20:19:16.491Z,96942.59
2022-12-06T20:21:44.691Z,96944.69
2022-12-06T20:24:13.156Z,96934.53
2022-12-06T20:26:41.132Z,96936.03
2022-12-06T20:29:08.834Z,96936.16
2022-12-06T20:31:38.235Z,96934.06
2022-12-06T20:34:13.087Z,96935.47
2022-12-06T20:36:42.906Z,96935.16
2022-12-06T20:39:19.259Z,96931.84
2022-12-06T20:41:46.901Z,96933.81
2022-12-06T20:44:14.522Z,96934.38
2022-12-06T20:46:43.567Z,96934.97
2022-12-06T20:49:11.340Z,96941.94
2022-12-06T20:51:38.913Z,96937.94
2022-12-06T20:54:08.134Z,96944.56
2022-12-06T20:56:37.848Z,96935.03
2022-12-06T20:59:06.433Z,96936.94
2022-12-06T21:01:36.227Z,96936.09
2022-12-06T21:04:05.409Z,96934.75
2022-12-06T21:06:33.128Z,96943.22
2022-12-06T21:09:00.983Z,96927.72
2022-12-06T21:11:28.585Z,96930.63
2022-12-06T21:13:57.818Z,96932.00
2022-12-06T21:16:27.250Z,96932.00
2022-12-06T21:18:56.627Z,96930.63
2022-12-06T21:21:27.262Z,96932.94
2022-12-06T21:23:54.848Z,96936.78
2022-12-06T21:26:23.371Z,96933.63
2022-12-06T21:28:52.730Z,96944.44
2022-12-06T21:31:20.596Z,96939.22
2022-12-06T21:33:48.257Z,96937.69
2022-12-06T21:36:15.866Z,96932.78
2022-12-06T21:38:44.766Z,96933.19
2022-12-06T21:41:14.241Z,96935.81
2022-12-06T21:43:41.874Z,96934.88
2022-12-06T21:46:12.075Z,96935.41
2022-12-06T21:48:39.679Z,96940.59
2022-12-06T21:51:09.064Z,96949.28
2022-12-06T21:53:36.914Z,96949.97
2022-12-06T21:56:08.809Z,96941.72
2022-12-06T21:58:36.914Z,96946.78
2022-12-06T22:01:06.518Z,96940.75
2022-12-06T22:03:34.242Z,96949.75
2022-12-06T22:06:05.681Z,96952.63
2022-12-06T22:08:33.308Z,96953.03
2022-12-06T22:11:00.910Z,96949.22
2022-12-06T22:13:29.850Z,96955.50
2022-12-06T22:16:01.914Z,96949.59
2022-12-06T22:18:30.012Z,96948.25
2022-12-06T22:21:01.177Z,96944.81
2022-12-06T22:23:28.784Z,96948.63
2022-12-06T22:25:56.367Z,96946.97
2022-12-06T22:28:24.001Z,96942.34
2022-12-06T22:30:53.413Z,96933.56
2022-12-06T22:33:21.145Z,96939.59
2022-12-06T22:35:48.702Z,96939.84
2022-12-06T22:38:16.299Z,96940.81
2022-12-06T22:40:43.887Z,96941.75
2022-12-06T22:43:11.653Z,96946.41
2022-12-06T22:45:39.238Z,96947.22
2022-12-06T22:48:08.962Z,96943.66
2022-12-06T22:50:36.683Z,96944.75
2022-12-06T22:53:04.248Z,96948.34
2022-12-06T22:55:32.547Z,96934.88
2022-12-06T22:58:00.237Z,96945.91
2022-12-06T23:00:27.865Z,96945.75
2022-12-06T23:02:55.456Z,96943.56
2022-12-06T23:05:24.404Z,96937.94
2022-12-06T23:07:52.056Z,96935.28
2022-12-06T23:10:19.857Z,96939.41
2022-12-06T23:12:47.446Z,96939.41
2022-12-06T23:15:15.096Z,96937.38
2022-12-06T23:17:42.743Z,96936.16
2022-12-06T23:20:10.917Z,96937.94
2022-12-06T23:22:40.176Z,96936.44
2022-12-06T23:25:08.643Z,96931.22
2022-12-06T23:27:36.389Z,96939.28
2022-12-06T23:30:04.373Z,96937.56
2022-12-06T23:32:32.089Z,96934.84
2022-12-06T23:35:00.076Z,96932.72
2022-12-06T23:37:27.647Z,96928.47
2022-12-06T23:39:56.599Z,96922.81
2022-12-06T23:42:24.182Z,96919.75
2022-12-06T23:44:51.746Z,96928.44
2022-12-06T23:47:19.792Z,96918.09
2022-12-06T23:49:47.377Z,96924.03
2022-12-06T23:52:14.950Z,96920.84
2022-12-06T23:54:42.496Z,96927.00
2022-12-06T23:57:14.833Z,96931.31
2022-12-06T23:59:42.423Z,96926.69
